sensor_id;sensor_type;location;lat;lon;timestamp;P1;durP1;ratioP1;P2;durP2;ratioP2
31004;SDS011;17676;52.254;4.490;2022-07-23T00:02:22;1.58;;;0.32;;
31004;SDS011;17676;52.254;4.490;2022-07-23T00:04:48;4.72;;;0.68;;
31004;SDS011;17676;52.254;4.490;2022-07-23T00:07:14;1.42;;;0.40;;
31004;SDS011;17676;52.254;4.490;2022-07-23T00:09:39;1.75;;;0.75;;
31004;SDS011;17676;52.254;4.490;2022-07-23T00:12:04;2.92;;;0.50;;
31004;SDS011;17676;52.254;4.490;2022-07-23T00:14:30;0.88;;;0.50;;
31004;SDS011;17676;52.254;4.490;2022-07-23T00:16:55;2.55;;;0.52;;
31004;SDS011;17676;52.254;4.490;2022-07-23T00:19:20;3.50;;;0.68;;
31004;SDS011;17676;52.254;4.490;2022-07-23T00:21:46;5.70;;;0.70;;
31004;SDS011;17676;52.254;4.490;2022-07-23T00:24:11;2.80;;;0.80;;
31004;SDS011;17676;52.254;4.490;2022-07-23T00:26:36;3.30;;;0.70;;
31004;SDS011;17676;52.254;4.490;2022-07-23T00:29:01;2.70;;;0.77;;
31004;SDS011;17676;52.254;4.490;2022-07-23T00:31:26;2.80;;;0.90;;
31004;SDS011;17676;52.254;4.490;2022-07-23T00:33:52;1.98;;;0.60;;
31004;SDS011;17676;52.254;4.490;2022-07-23T00:36:21;1.13;;;0.70;;
31004;SDS011;17676;52.254;4.490;2022-07-23T00:38:46;2.15;;;0.90;;
31004;SDS011;17676;52.254;4.490;2022-07-23T00:41:12;2.45;;;0.93;;
31004;SDS011;17676;52.254;4.490;2022-07-23T00:43:37;3.00;;;0.80;;
31004;SDS011;17676;52.254;4.490;2022-07-23T00:46:02;6.95;;;0.85;;
31004;SDS011;17676;52.254;4.490;2022-07-23T00:48:27;1.40;;;0.73;;
31004;SDS011;17676;52.254;4.490;2022-07-23T00:50:52;2.23;;;0.80;;
31004;SDS011;17676;52.254;4.490;2022-07-23T00:53:18;3.80;;;0.70;;
31004;SDS011;17676;52.254;4.490;2022-07-23T00:55:44;3.95;;;0.90;;
31004;SDS011;17676;52.254;4.490;2022-07-23T00:58:09;2.80;;;0.65;;
31004;SDS011;17676;52.254;4.490;2022-07-23T01:00:36;3.03;;;1.05;;
31004;SDS011;17676;52.254;4.490;2022-07-23T01:03:01;1.75;;;1.20;;
31004;SDS011;17676;52.254;4.490;2022-07-23T01:05:26;5.53;;;0.90;;
31004;SDS011;17676;52.254;4.490;2022-07-23T01:07:52;5.00;;;0.98;;
31004;SDS011;17676;52.254;4.490;2022-07-23T01:10:17;2.72;;;1.35;;
31004;SDS011;17676;52.254;4.490;2022-07-23T01:12:58;2.45;;;1.00;;
31004;SDS011;17676;52.254;4.490;2022-07-23T01:15:24;1.80;;;1.27;;
31004;SDS011;17676;52.254;4.490;2022-07-23T01:17:49;2.72;;;1.42;;
31004;SDS011;17676;52.254;4.490;2022-07-23T01:20:14;2.15;;;1.95;;
31004;SDS011;17676;52.254;4.490;2022-07-23T01:22:40;4.82;;;1.88;;
31004;SDS011;17676;52.254;4.490;2022-07-23T01:25:05;6.35;;;1.63;;
31004;SDS011;17676;52.254;4.490;2022-07-23T01:27:30;4.18;;;1.95;;
31004;SDS011;17676;52.254;4.490;2022-07-23T01:29:56;4.22;;;2.00;;
31004;SDS011;17676;52.254;4.490;2022-07-23T01:32:21;5.82;;;1.65;;
31004;SDS011;17676;52.254;4.490;2022-07-23T01:34:47;5.80;;;1.63;;
31004;SDS011;17676;52.254;4.490;2022-07-23T01:37:12;2.47;;;1.60;;
31004;SDS011;17676;52.254;4.490;2022-07-23T01:39:37;2.15;;;1.45;;
31004;SDS011;17676;52.254;4.490;2022-07-23T01:42:02;2.67;;;1.77;;
31004;SDS011;17676;52.254;4.490;2022-07-23T01:44:28;3.95;;;1.85;;
31004;SDS011;17676;52.254;4.490;2022-07-23T01:46:55;5.25;;;2.08;;
31004;SDS011;17676;52.254;4.490;2022-07-23T01:49:20;2.05;;;1.80;;
31004;SDS011;17676;52.254;4.490;2022-07-23T01:51:45;3.55;;;1.60;;
31004;SDS011;17676;52.254;4.490;2022-07-23T01:54:29;2.45;;;1.60;;
31004;SDS011;17676;52.254;4.490;2022-07-23T01:56:55;4.13;;;1.40;;
31004;SDS011;17676;52.254;4.490;2022-07-23T01:59:20;2.25;;;1.30;;
31004;SDS011;17676;52.254;4.490;2022-07-23T02:01:46;1.85;;;1.58;;
31004;SDS011;17676;52.254;4.490;2022-07-23T02:04:11;1.25;;;0.70;;
31004;SDS011;17676;52.254;4.490;2022-07-23T02:06:36;3.33;;;1.23;;
31004;SDS011;17676;52.254;4.490;2022-07-23T02:09:02;1.63;;;1.30;;
31004;SDS011;17676;52.254;4.490;2022-07-23T02:11:27;2.55;;;1.40;;
31004;SDS011;17676;52.254;4.490;2022-07-23T02:13:52;2.38;;;1.23;;
31004;SDS011;17676;52.254;4.490;2022-07-23T02:16:18;2.20;;;1.45;;
31004;SDS011;17676;52.254;4.490;2022-07-23T02:18:43;2.95;;;1.10;;
31004;SDS011;17676;52.254;4.490;2022-07-23T02:21:08;5.55;;;1.45;;
31004;SDS011;17676;52.254;4.490;2022-07-23T02:23:34;4.25;;;1.40;;
31004;SDS011;17676;52.254;4.490;2022-07-23T02:25:59;5.13;;;2.40;;
31004;SDS011;17676;52.254;4.490;2022-07-23T02:28:24;2.90;;;2.70;;
31004;SDS011;17676;52.254;4.490;2022-07-23T02:30:50;4.68;;;2.30;;
31004;SDS011;17676;52.254;4.490;2022-07-23T02:33:15;2.50;;;2.33;;
31004;SDS011;17676;52.254;4.490;2022-07-23T02:35:40;4.32;;;2.80;;
31004;SDS011;17676;52.254;4.490;2022-07-23T02:38:05;3.55;;;2.65;;
31004;SDS011;17676;52.254;4.490;2022-07-23T02:40:31;3.03;;;2.38;;
31004;SDS011;17676;52.254;4.490;2022-07-23T02:42:56;2.58;;;2.25;;
31004;SDS011;17676;52.254;4.490;2022-07-23T02:45:21;3.25;;;2.95;;
31004;SDS011;17676;52.254;4.490;2022-07-23T02:47:46;3.03;;;2.72;;
31004;SDS011;17676;52.254;4.490;2022-07-23T02:50:11;3.30;;;3.00;;
31004;SDS011;17676;52.254;4.490;2022-07-23T02:52:37;4.95;;;3.20;;
31004;SDS011;17676;52.254;4.490;2022-07-23T02:55:02;3.63;;;3.30;;
31004;SDS011;17676;52.254;4.490;2022-07-23T02:57:28;2.92;;;2.72;;
31004;SDS011;17676;52.254;4.490;2022-07-23T02:59:53;4.40;;;2.92;;
31004;SDS011;17676;52.254;4.490;2022-07-23T03:02:18;3.63;;;3.20;;
31004;SDS011;17676;52.254;4.490;2022-07-23T03:04:43;3.50;;;3.20;;
31004;SDS011;17676;52.254;4.490;2022-07-23T03:07:09;3.70;;;2.80;;
31004;SDS011;17676;52.254;4.490;2022-07-23T03:09:34;4.30;;;3.17;;
31004;SDS011;17676;52.254;4.490;2022-07-23T03:11:59;5.30;;;3.25;;
31004;SDS011;17676;52.254;4.490;2022-07-23T03:14:24;3.20;;;3.05;;
31004;SDS011;17676;52.254;4.490;2022-07-23T03:16:50;4.57;;;2.90;;
31004;SDS011;17676;52.254;4.490;2022-07-23T03:19:15;3.58;;;2.85;;
31004;SDS011;17676;52.254;4.490;2022-07-23T03:21:40;3.00;;;2.80;;
31004;SDS011;17676;52.254;4.490;2022-07-23T03:24:09;3.13;;;2.78;;
31004;SDS011;17676;52.254;4.490;2022-07-23T03:26:35;3.42;;;2.90;;
31004;SDS011;17676;52.254;4.490;2022-07-23T03:29:00;2.80;;;2.60;;
31004;SDS011;17676;52.254;4.490;2022-07-23T03:31:28;2.58;;;2.38;;
31004;SDS011;17676;52.254;4.490;2022-07-23T03:33:53;2.65;;;2.15;;
31004;SDS011;17676;52.254;4.490;2022-07-23T03:36:18;2.85;;;2.58;;
31004;SDS011;17676;52.254;4.490;2022-07-23T03:38:44;3.45;;;2.55;;
31004;SDS011;17676;52.254;4.490;2022-07-23T03:41:09;4.18;;;2.88;;
31004;SDS011;17676;52.254;4.490;2022-07-23T03:43:34;3.03;;;2.45;;
31004;SDS011;17676;52.254;4.490;2022-07-23T03:45:59;4.03;;;3.17;;
31004;SDS011;17676;52.254;4.490;2022-07-23T03:48:25;4.93;;;2.58;;
31004;SDS011;17676;52.254;4.490;2022-07-23T03:50:50;2.65;;;2.10;;
31004;SDS011;17676;52.254;4.490;2022-07-23T03:53:15;2.28;;;2.08;;
31004;SDS011;17676;52.254;4.490;2022-07-23T03:55:41;6.68;;;2.00;;
31004;SDS011;17676;52.254;4.490;2022-07-23T03:58:06;4.95;;;2.00;;
31004;SDS011;17676;52.254;4.490;2022-07-23T04:00:31;4.00;;;1.90;;
31004;SDS011;17676;52.254;4.490;2022-07-23T04:02:56;2.35;;;2.17;;
31004;SDS011;17676;52.254;4.490;2022-07-23T04:05:22;7.22;;;2.10;;
31004;SDS011;17676;52.254;4.490;2022-07-23T04:07:47;2.40;;;1.40;;
31004;SDS011;17676;52.254;4.490;2022-07-23T04:10:12;3.42;;;1.80;;
31004;SDS011;17676;52.254;4.490;2022-07-23T04:12:37;2.88;;;1.50;;
31004;SDS011;17676;52.254;4.490;2022-07-23T04:15:03;2.15;;;1.10;;
31004;SDS011;17676;52.254;4.490;2022-07-23T04:17:31;1.40;;;1.30;;
31004;SDS011;17676;52.254;4.490;2022-07-23T04:19:57;2.38;;;1.00;;
31004;SDS011;17676;52.254;4.490;2022-07-23T04:22:22;4.65;;;1.60;;
31004;SDS011;17676;52.254;4.490;2022-07-23T04:24:48;4.65;;;1.10;;
31004;SDS011;17676;52.254;4.490;2022-07-23T04:27:14;2.58;;;1.45;;
31004;SDS011;17676;52.254;4.490;2022-07-23T04:29:39;2.28;;;1.05;;
31004;SDS011;17676;52.254;4.490;2022-07-23T04:32:05;2.58;;;1.25;;
31004;SDS011;17676;52.254;4.490;2022-07-23T04:34:30;1.48;;;1.20;;
31004;SDS011;17676;52.254;4.490;2022-07-23T04:36:55;3.92;;;1.40;;
31004;SDS011;17676;52.254;4.490;2022-07-23T04:39:21;2.40;;;1.15;;
31004;SDS011;17676;52.254;4.490;2022-07-23T04:41:47;2.38;;;1.13;;
31004;SDS011;17676;52.254;4.490;2022-07-23T04:44:13;2.92;;;1.05;;
31004;SDS011;17676;52.254;4.490;2022-07-23T04:46:38;2.65;;;1.10;;
31004;SDS011;17676;52.254;4.490;2022-07-23T04:49:03;0.88;;;0.80;;
31004;SDS011;17676;52.254;4.490;2022-07-23T04:51:29;2.55;;;0.90;;
31004;SDS011;17676;52.254;4.490;2022-07-23T04:53:54;3.03;;;0.93;;
31004;SDS011;17676;52.254;4.490;2022-07-23T04:56:19;3.47;;;0.77;;
31004;SDS011;17676;52.254;4.490;2022-07-23T04:58:44;3.33;;;0.63;;
31004;SDS011;17676;52.254;4.490;2022-07-23T05:01:10;2.70;;;0.70;;
31004;SDS011;17676;52.254;4.490;2022-07-23T05:03:35;3.67;;;0.95;;
31004;SDS011;17676;52.254;4.490;2022-07-23T05:06:00;3.03;;;1.58;;
31004;SDS011;17676;52.254;4.490;2022-07-23T05:08:26;1.83;;;1.38;;
31004;SDS011;17676;52.254;4.490;2022-07-23T05:10:51;2.35;;;1.30;;
31004;SDS011;17676;52.254;4.490;2022-07-23T05:13:16;1.35;;;1.20;;
31004;SDS011;17676;52.254;4.490;2022-07-23T05:15:42;4.63;;;1.40;;
31004;SDS011;17676;52.254;4.490;2022-07-23T05:18:07;2.63;;;1.75;;
31004;SDS011;17676;52.254;4.490;2022-07-23T05:20:33;2.95;;;1.35;;
31004;SDS011;17676;52.254;4.490;2022-07-23T05:22:58;4.20;;;1.38;;
31004;SDS011;17676;52.254;4.490;2022-07-23T05:25:23;3.20;;;1.45;;
31004;SDS011;17676;52.254;4.490;2022-07-23T05:27:49;3.67;;;1.48;;
31004;SDS011;17676;52.254;4.490;2022-07-23T05:30:14;2.05;;;0.85;;
31004;SDS011;17676;52.254;4.490;2022-07-23T05:32:40;3.00;;;0.95;;
31004;SDS011;17676;52.254;4.490;2022-07-23T05:35:06;5.75;;;1.00;;
31004;SDS011;17676;52.254;4.490;2022-07-23T05:37:31;2.25;;;0.50;;
31004;SDS011;17676;52.254;4.490;2022-07-23T05:39:59;2.45;;;0.60;;
31004;SDS011;17676;52.254;4.490;2022-07-23T05:42:25;6.20;;;0.60;;
31004;SDS011;17676;52.254;4.490;2022-07-23T05:44:50;3.33;;;0.68;;
31004;SDS011;17676;52.254;4.490;2022-07-23T05:47:15;4.40;;;0.88;;
31004;SDS011;17676;52.254;4.490;2022-07-23T05:49:41;1.83;;;1.08;;
31004;SDS011;17676;52.254;4.490;2022-07-23T05:52:06;2.88;;;0.47;;
31004;SDS011;17676;52.254;4.490;2022-07-23T05:54:33;2.08;;;0.60;;
31004;SDS011;17676;52.254;4.490;2022-07-23T05:56:59;1.20;;;0.40;;
31004;SDS011;17676;52.254;4.490;2022-07-23T05:59:24;2.28;;;0.43;;
31004;SDS011;17676;52.254;4.490;2022-07-23T06:01:50;2.83;;;0.63;;
31004;SDS011;17676;52.254;4.490;2022-07-23T06:04:15;3.03;;;0.60;;
31004;SDS011;17676;52.254;4.490;2022-07-23T06:06:41;5.88;;;1.50;;
31004;SDS011;17676;52.254;4.490;2022-07-23T06:09:06;3.42;;;1.10;;
31004;SDS011;17676;52.254;4.490;2022-07-23T06:11:31;2.93;;;1.53;;
31004;SDS011;17676;52.254;4.490;2022-07-23T06:13:56;5.03;;;1.20;;
31004;SDS011;17676;52.254;4.490;2022-07-23T06:16:22;4.40;;;0.68;;
31004;SDS011;17676;52.254;4.490;2022-07-23T06:18:47;4.57;;;0.98;;
31004;SDS011;17676;52.254;4.490;2022-07-23T06:21:13;4.72;;;1.00;;
31004;SDS011;17676;52.254;4.490;2022-07-23T06:23:38;4.47;;;0.60;;
31004;SDS011;17676;52.254;4.490;2022-07-23T06:26:03;2.83;;;0.40;;
31004;SDS011;17676;52.254;4.490;2022-07-23T06:28:28;3.40;;;0.45;;
31004;SDS011;17676;52.254;4.490;2022-07-23T06:30:54;2.37;;;0.50;;
31004;SDS011;17676;52.254;4.490;2022-07-23T06:33:19;2.47;;;0.50;;
31004;SDS011;17676;52.254;4.490;2022-07-23T06:35:44;2.37;;;0.50;;
31004;SDS011;17676;52.254;4.490;2022-07-23T06:38:10;2.22;;;0.30;;
31004;SDS011;17676;52.254;4.490;2022-07-23T06:40:35;5.18;;;0.30;;
31004;SDS011;17676;52.254;4.490;2022-07-23T06:43:00;1.60;;;0.40;;
31004;SDS011;17676;52.254;4.490;2022-07-23T06:45:26;4.28;;;0.22;;
31004;SDS011;17676;52.254;4.490;2022-07-23T06:47:51;3.53;;;0.20;;
31004;SDS011;17676;52.254;4.490;2022-07-23T06:50:16;4.83;;;0.20;;
31004;SDS011;17676;52.254;4.490;2022-07-23T06:52:42;4.47;;;0.28;;
31004;SDS011;17676;52.254;4.490;2022-07-23T06:55:07;2.90;;;0.20;;
31004;SDS011;17676;52.254;4.490;2022-07-23T06:57:32;1.77;;;0.10;;
31004;SDS011;17676;52.254;4.490;2022-07-23T06:59:58;2.63;;;0.20;;
31004;SDS011;17676;52.254;4.490;2022-07-23T07:02:26;1.60;;;0.30;;
31004;SDS011;17676;52.254;4.490;2022-07-23T07:04:51;4.47;;;0.20;;
31004;SDS011;17676;52.254;4.490;2022-07-23T07:07:17;1.55;;;0.20;;
31004;SDS011;17676;52.254;4.490;2022-07-23T07:09:42;4.53;;;0.20;;
31004;SDS011;17676;52.254;4.490;2022-07-23T07:12:07;3.00;;;0.20;;
31004;SDS011;17676;52.254;4.490;2022-07-23T07:14:33;3.78;;;0.20;;
31004;SDS011;17676;52.254;4.490;2022-07-23T07:16:58;1.52;;;0.20;;
31004;SDS011;17676;52.254;4.490;2022-07-23T07:19:24;2.30;;;0.10;;
31004;SDS011;17676;52.254;4.490;2022-07-23T07:21:49;1.15;;;0.20;;
31004;SDS011;17676;52.254;4.490;2022-07-23T07:24:14;1.63;;;0.10;;
31004;SDS011;17676;52.254;4.490;2022-07-23T07:26:39;0.55;;;0.20;;
31004;SDS011;17676;52.254;4.490;2022-07-23T07:29:06;3.70;;;0.10;;
31004;SDS011;17676;52.254;4.490;2022-07-23T07:31:31;0.65;;;0.10;;
31004;SDS011;17676;52.254;4.490;2022-07-23T07:33:57;1.60;;;0.20;;
31004;SDS011;17676;52.254;4.490;2022-07-23T07:36:23;1.25;;;0.10;;
31004;SDS011;17676;52.254;4.490;2022-07-23T07:38:48;0.55;;;0.10;;
31004;SDS011;17676;52.254;4.490;2022-07-23T07:41:14;0.83;;;0.10;;
31004;SDS011;17676;52.254;4.490;2022-07-23T07:43:47;1.33;;;0.10;;
31004;SDS011;17676;52.254;4.490;2022-07-23T07:46:12;2.37;;;0.20;;
31004;SDS011;17676;52.254;4.490;2022-07-23T07:48:38;0.77;;;0.20;;
31004;SDS011;17676;52.254;4.490;2022-07-23T07:51:03;2.93;;;0.20;;
31004;SDS011;17676;52.254;4.490;2022-07-23T07:53:29;1.70;;;0.20;;
31004;SDS011;17676;52.254;4.490;2022-07-23T07:55:56;1.65;;;0.20;;
31004;SDS011;17676;52.254;4.490;2022-07-23T07:58:21;3.08;;;0.20;;
31004;SDS011;17676;52.254;4.490;2022-07-23T08:00:46;3.30;;;0.20;;
31004;SDS011;17676;52.254;4.490;2022-07-23T08:03:11;1.38;;;0.20;;
31004;SDS011;17676;52.254;4.490;2022-07-23T08:05:37;0.83;;;0.20;;
31004;SDS011;17676;52.254;4.490;2022-07-23T08:08:02;3.50;;;0.20;;
31004;SDS011;17676;52.254;4.490;2022-07-23T08:10:28;3.00;;;0.20;;
31004;SDS011;17676;52.254;4.490;2022-07-23T08:12:54;1.55;;;0.10;;
31004;SDS011;17676;52.254;4.490;2022-07-23T08:15:22;2.63;;;0.20;;
31004;SDS011;17676;52.254;4.490;2022-07-23T08:17:47;1.75;;;0.20;;
31004;SDS011;17676;52.254;4.490;2022-07-23T08:20:14;1.35;;;0.20;;
31004;SDS011;17676;52.254;4.490;2022-07-23T08:25:20;1.15;;;0.20;;
31004;SDS011;17676;52.254;4.490;2022-07-23T08:27:46;1.83;;;0.20;;
31004;SDS011;17676;52.254;4.490;2022-07-23T08:30:12;1.20;;;0.20;;
31004;SDS011;17676;52.254;4.490;2022-07-23T08:35:15;1.08;;;0.15;;
31004;SDS011;17676;52.254;4.490;2022-07-23T08:37:41;0.45;;;0.13;;
31004;SDS011;17676;52.254;4.490;2022-07-23T08:40:06;3.05;;;0.20;;
31004;SDS011;17676;52.254;4.490;2022-07-23T08:42:32;3.05;;;0.20;;
31004;SDS011;17676;52.254;4.490;2022-07-23T08:45:00;2.70;;;0.10;;
31004;SDS011;17676;52.254;4.490;2022-07-23T08:47:26;1.90;;;0.10;;
31004;SDS011;17676;52.254;4.490;2022-07-23T08:49:52;3.47;;;0.30;;
31004;SDS011;17676;52.254;4.490;2022-07-23T08:52:17;2.33;;;0.20;;
31004;SDS011;17676;52.254;4.490;2022-07-23T08:54:43;2.57;;;0.20;;
31004;SDS011;17676;52.254;4.490;2022-07-23T08:57:09;2.85;;;0.20;;
31004;SDS011;17676;52.254;4.490;2022-07-23T08:59:34;2.77;;;0.20;;
31004;SDS011;17676;52.254;4.490;2022-07-23T09:01:59;1.97;;;0.20;;
31004;SDS011;17676;52.254;4.490;2022-07-23T09:04:29;0.77;;;0.20;;
31004;SDS011;17676;52.254;4.490;2022-07-23T09:06:55;4.03;;;0.20;;
31004;SDS011;17676;52.254;4.490;2022-07-23T09:09:23;2.72;;;0.20;;
31004;SDS011;17676;52.254;4.490;2022-07-23T09:12:04;6.75;;;0.25;;
31004;SDS011;17676;52.254;4.490;2022-07-23T09:17:11;3.00;;;0.20;;
31004;SDS011;17676;52.254;4.490;2022-07-23T09:19:36;4.63;;;0.20;;
31004;SDS011;17676;52.254;4.490;2022-07-23T09:25:10;3.92;;;0.10;;
31004;SDS011;17676;52.254;4.490;2022-07-23T09:27:45;1.98;;;0.10;;
31004;SDS011;17676;52.254;4.490;2022-07-23T09:30:11;1.52;;;0.20;;
31004;SDS011;17676;52.254;4.490;2022-07-23T09:32:36;1.80;;;0.30;;
31004;SDS011;17676;52.254;4.490;2022-07-23T09:35:01;3.90;;;0.70;;
31004;SDS011;17676;52.254;4.490;2022-07-23T09:37:26;2.90;;;0.20;;
31004;SDS011;17676;52.254;4.490;2022-07-23T09:39:52;2.20;;;0.20;;
31004;SDS011;17676;52.254;4.490;2022-07-23T09:42:28;4.82;;;0.15;;
31004;SDS011;17676;52.254;4.490;2022-07-23T09:44:55;1.70;;;0.20;;
31004;SDS011;17676;52.254;4.490;2022-07-23T09:47:22;1.70;;;0.20;;
31004;SDS011;17676;52.254;4.490;2022-07-23T09:52:26;3.70;;;0.30;;
31004;SDS011;17676;52.254;4.490;2022-07-23T09:54:51;4.18;;;0.20;;
31004;SDS011;17676;52.254;4.490;2022-07-23T09:57:28;4.00;;;0.20;;
31004;SDS011;17676;52.254;4.490;2022-07-23T09:59:53;5.18;;;0.40;;
31004;SDS011;17676;52.254;4.490;2022-07-23T10:02:21;1.73;;;0.10;;
31004;SDS011;17676;52.254;4.490;2022-07-23T10:04:47;2.40;;;0.20;;
31004;SDS011;17676;52.254;4.490;2022-07-23T10:07:12;3.47;;;0.20;;
31004;SDS011;17676;52.254;4.490;2022-07-23T10:09:40;2.97;;;0.20;;
31004;SDS011;17676;52.254;4.490;2022-07-23T10:12:09;0.77;;;0.20;;
31004;SDS011;17676;52.254;4.490;2022-07-23T10:14:53;0.85;;;0.10;;
31004;SDS011;17676;52.254;4.490;2022-07-23T10:17:19;3.58;;;0.20;;
31004;SDS011;17676;52.254;4.490;2022-07-23T10:19:44;2.13;;;0.20;;
31004;SDS011;17676;52.254;4.490;2022-07-23T10:22:14;2.83;;;0.40;;
31004;SDS011;17676;52.254;4.490;2022-07-23T10:27:15;1.13;;;0.20;;
31004;SDS011;17676;52.254;4.490;2022-07-23T10:29:58;3.88;;;0.20;;
31004;SDS011;17676;52.254;4.490;2022-07-23T10:37:49;4.47;;;0.30;;
31004;SDS011;17676;52.254;4.490;2022-07-23T10:42:45;5.22;;;0.30;;
31004;SDS011;17676;52.254;4.490;2022-07-23T10:45:24;3.20;;;0.20;;
31004;SDS011;17676;52.254;4.490;2022-07-23T10:47:50;4.53;;;0.25;;
31004;SDS011;17676;52.254;4.490;2022-07-23T10:50:22;6.07;;;0.20;;
31004;SDS011;17676;52.254;4.490;2022-07-23T10:57:56;1.97;;;0.20;;
31004;SDS011;17676;52.254;4.490;2022-07-23T11:00:25;1.63;;;0.13;;
31004;SDS011;17676;52.254;4.490;2022-07-23T11:02:56;1.75;;;0.20;;
31004;SDS011;17676;52.254;4.490;2022-07-23T11:05:47;3.50;;;0.20;;
31004;SDS011;17676;52.254;4.490;2022-07-23T11:08:18;1.35;;;0.10;;
31004;SDS011;17676;52.254;4.490;2022-07-23T11:10:52;0.98;;;0.10;;
31004;SDS011;17676;52.254;4.490;2022-07-23T11:13:35;0.93;;;0.10;;
31004;SDS011;17676;52.254;4.490;2022-07-23T11:26:57;2.97;;;0.13;;
31004;SDS011;17676;52.254;4.490;2022-07-23T11:38:16;1.85;;;0.20;;
31004;SDS011;17676;52.254;4.490;2022-07-23T11:40:46;1.88;;;0.10;;
31004;SDS011;17676;52.254;4.490;2022-07-23T11:43:11;4.32;;;0.10;;
31004;SDS011;17676;52.254;4.490;2022-07-23T11:45:41;2.35;;;0.20;;
31004;SDS011;17676;52.254;4.490;2022-07-23T11:48:17;5.95;;;4.13;;
31004;SDS011;17676;52.254;4.490;2022-07-23T11:50:43;1.67;;;0.20;;
31004;SDS011;17676;52.254;4.490;2022-07-23T11:53:09;3.75;;;3.30;;
31004;SDS011;17676;52.254;4.490;2022-07-23T11:55:34;2.45;;;0.22;;
31004;SDS011;17676;52.254;4.490;2022-07-23T11:58:00;3.90;;;1.65;;
31004;SDS011;17676;52.254;4.490;2022-07-23T12:00:27;3.10;;;0.30;;
31004;SDS011;17676;52.254;4.490;2022-07-23T12:02:53;2.53;;;0.30;;
31004;SDS011;17676;52.254;4.490;2022-07-23T12:05:23;1.42;;;0.30;;
31004;SDS011;17676;52.254;4.490;2022-07-23T12:07:50;0.65;;;0.30;;
31004;SDS011;17676;52.254;4.490;2022-07-23T12:15:15;4.20;;;0.20;;
31004;SDS011;17676;52.254;4.490;2022-07-23T12:17:42;1.95;;;0.20;;
31004;SDS011;17676;52.254;4.490;2022-07-23T12:20:09;3.58;;;0.20;;
31004;SDS011;17676;52.254;4.490;2022-07-23T12:22:40;2.28;;;0.20;;
31004;SDS011;17676;52.254;4.490;2022-07-23T12:25:12;3.20;;;0.20;;
31004;SDS011;17676;52.254;4.490;2022-07-23T12:27:38;3.60;;;0.30;;
31004;SDS011;17676;52.254;4.490;2022-07-23T12:30:19;0.73;;;0.10;;
31004;SDS011;17676;52.254;4.490;2022-07-23T12:32:46;2.60;;;0.10;;
31004;SDS011;17676;52.254;4.490;2022-07-23T12:35:11;4.70;;;0.20;;
31004;SDS011;17676;52.254;4.490;2022-07-23T12:37:41;1.20;;;0.10;;
31004;SDS011;17676;52.254;4.490;2022-07-23T12:40:28;1.83;;;0.20;;
31004;SDS011;17676;52.254;4.490;2022-07-23T12:42:58;1.23;;;0.17;;
31004;SDS011;17676;52.254;4.490;2022-07-23T12:45:24;0.88;;;0.13;;
31004;SDS011;17676;52.254;4.490;2022-07-23T12:47:50;1.50;;;0.15;;
31004;SDS011;17676;52.254;4.490;2022-07-23T12:53:03;1.25;;;0.10;;
31004;SDS011;17676;52.254;4.490;2022-07-23T12:55:30;0.82;;;0.10;;
31004;SDS011;17676;52.254;4.490;2022-07-23T12:58:02;1.80;;;0.20;;
31004;SDS011;17676;52.254;4.490;2022-07-23T13:00:28;3.13;;;0.47;;
31004;SDS011;17676;52.254;4.490;2022-07-23T13:02:53;2.25;;;0.30;;
31004;SDS011;17676;52.254;4.490;2022-07-23T13:05:18;3.93;;;0.53;;
31004;SDS011;17676;52.254;4.490;2022-07-23T13:07:43;1.70;;;0.30;;
31004;SDS011;17676;52.254;4.490;2022-07-23T13:10:09;3.10;;;0.30;;
31004;SDS011;17676;52.254;4.490;2022-07-23T13:12:36;2.70;;;0.20;;
31004;SDS011;17676;52.254;4.490;2022-07-23T13:15:02;0.68;;;0.20;;
31004;SDS011;17676;52.254;4.490;2022-07-23T13:17:27;0.65;;;0.20;;
31004;SDS011;17676;52.254;4.490;2022-07-23T13:19:53;1.40;;;0.20;;
31004;SDS011;17676;52.254;4.490;2022-07-23T13:22:21;1.45;;;0.20;;
31004;SDS011;17676;52.254;4.490;2022-07-23T13:24:46;0.70;;;0.20;;
31004;SDS011;17676;52.254;4.490;2022-07-23T13:27:11;2.73;;;0.20;;
31004;SDS011;17676;52.254;4.490;2022-07-23T13:29:37;3.13;;;0.30;;
31004;SDS011;17676;52.254;4.490;2022-07-23T13:32:04;1.13;;;0.25;;
31004;SDS011;17676;52.254;4.490;2022-07-23T13:34:31;1.52;;;0.20;;
31004;SDS011;17676;52.254;4.490;2022-07-23T13:36:56;1.13;;;0.80;;
31004;SDS011;17676;52.254;4.490;2022-07-23T13:39:22;3.20;;;0.20;;
31004;SDS011;17676;52.254;4.490;2022-07-23T13:41:48;4.88;;;0.57;;
31004;SDS011;17676;52.254;4.490;2022-07-23T13:44:14;4.88;;;0.20;;
31004;SDS011;17676;52.254;4.490;2022-07-23T13:46:39;0.30;;;0.20;;
31004;SDS011;17676;52.254;4.490;2022-07-23T13:49:04;1.77;;;0.20;;
31004;SDS011;17676;52.254;4.490;2022-07-23T13:51:29;4.60;;;0.30;;
31004;SDS011;17676;52.254;4.490;2022-07-23T13:53:54;2.78;;;0.20;;
31004;SDS011;17676;52.254;4.490;2022-07-23T13:56:20;2.72;;;0.20;;
31004;SDS011;17676;52.254;4.490;2022-07-23T13:58:45;2.77;;;0.20;;
31004;SDS011;17676;52.254;4.490;2022-07-23T14:01:10;2.35;;;0.40;;
31004;SDS011;17676;52.254;4.490;2022-07-23T14:03:36;1.70;;;0.30;;
31004;SDS011;17676;52.254;4.490;2022-07-23T14:06:01;1.25;;;0.30;;
31004;SDS011;17676;52.254;4.490;2022-07-23T14:08:26;0.77;;;0.38;;
31004;SDS011;17676;52.254;4.490;2022-07-23T14:10:51;2.53;;;0.30;;
31004;SDS011;17676;52.254;4.490;2022-07-23T14:13:17;2.85;;;0.20;;
31004;SDS011;17676;52.254;4.490;2022-07-23T14:15:42;3.30;;;0.30;;
31004;SDS011;17676;52.254;4.490;2022-07-23T14:18:07;4.73;;;0.30;;
31004;SDS011;17676;52.254;4.490;2022-07-23T14:20:33;1.75;;;0.82;;
31004;SDS011;17676;52.254;4.490;2022-07-23T14:22:58;3.42;;;0.30;;
31004;SDS011;17676;52.254;4.490;2022-07-23T14:25:25;2.22;;;0.30;;
31004;SDS011;17676;52.254;4.490;2022-07-23T14:27:50;1.55;;;0.38;;
31004;SDS011;17676;52.254;4.490;2022-07-23T14:30:15;0.88;;;0.30;;
31004;SDS011;17676;52.254;4.490;2022-07-23T14:32:41;2.90;;;0.50;;
31004;SDS011;17676;52.254;4.490;2022-07-23T14:35:06;5.97;;;0.73;;
31004;SDS011;17676;52.254;4.490;2022-07-23T14:37:32;4.25;;;0.47;;
31004;SDS011;17676;52.254;4.490;2022-07-23T14:39:57;2.95;;;0.70;;
31004;SDS011;17676;52.254;4.490;2022-07-23T14:42:22;3.90;;;0.52;;
31004;SDS011;17676;52.254;4.490;2022-07-23T14:44:47;5.80;;;0.50;;
31004;SDS011;17676;52.254;4.490;2022-07-23T14:47:13;2.53;;;0.47;;
31004;SDS011;17676;52.254;4.490;2022-07-23T14:49:38;4.55;;;0.60;;
31004;SDS011;17676;52.254;4.490;2022-07-23T14:52:03;4.53;;;0.63;;
31004;SDS011;17676;52.254;4.490;2022-07-23T14:54:30;3.42;;;0.45;;
31004;SDS011;17676;52.254;4.490;2022-07-23T14:56:55;4.95;;;0.47;;
31004;SDS011;17676;52.254;4.490;2022-07-23T14:59:21;2.53;;;0.35;;
31004;SDS011;17676;52.254;4.490;2022-07-23T15:01:46;2.53;;;0.43;;
31004;SDS011;17676;52.254;4.490;2022-07-23T15:04:12;1.45;;;0.35;;
31004;SDS011;17676;52.254;4.490;2022-07-23T15:06:37;0.75;;;0.30;;
31004;SDS011;17676;52.254;4.490;2022-07-23T15:09:03;1.77;;;0.40;;
31004;SDS011;17676;52.254;4.490;2022-07-23T15:11:29;2.60;;;0.47;;
31004;SDS011;17676;52.254;4.490;2022-07-23T15:13:57;1.38;;;0.30;;
31004;SDS011;17676;52.254;4.490;2022-07-23T15:16:23;0.97;;;0.30;;
31004;SDS011;17676;52.254;4.490;2022-07-23T15:18:48;2.88;;;0.30;;
31004;SDS011;17676;52.254;4.490;2022-07-23T15:21:13;3.97;;;0.30;;
31004;SDS011;17676;52.254;4.490;2022-07-23T15:23:39;2.97;;;0.43;;
31004;SDS011;17676;52.254;4.490;2022-07-23T15:26:05;2.38;;;0.43;;
31004;SDS011;17676;52.254;4.490;2022-07-23T15:28:30;1.48;;;0.30;;
31004;SDS011;17676;52.254;4.490;2022-07-23T15:30:55;2.10;;;0.43;;
31004;SDS011;17676;52.254;4.490;2022-07-23T15:33:20;3.67;;;0.30;;
31004;SDS011;17676;52.254;4.490;2022-07-23T15:35:45;3.43;;;0.40;;
31004;SDS011;17676;52.254;4.490;2022-07-23T15:38:12;1.13;;;0.35;;
31004;SDS011;17676;52.254;4.490;2022-07-23T15:40:40;2.83;;;0.63;;